Airport View

Enter AWOS ICAO identifier for current METAR.

ex. KFNL

K3D2 170955Z AUTO 18007KT 10SM OVC017 02/M01 A3008 RMK AO2 T00171011

17 Nov 2019 09:55

Frequency: 124.175

Phone: 920-854-5559

Other Area AWOS: K2P2 - KMNM - KSUE - KOCQ

TAF KGRB 170520Z 1706/1806 15007KT P6SM BKN150 FM170900 17008KT P6SM OVC100 FM171600 18008KT P6SM BKN020 OVC070 FM171800 20007KT 4SM -RASN BKN010 FM172300 22005KT 5SM BR BKN008